Time;durP1;ratioP1;P1;durP2;ratioP2;P2;SDS_P1;SDS_P2;PMS_P1;PMS_P2;Temp;Humidity;BMP_temperature;BMP_pressure;BME280_temperature;BME280_humidity;BME280_pressure;Samples;Min_cycle;Max_cycle;Signal;HPM_P1;HPM_P2
2022/08/07 00:00:36;;;;;;;;;;;;;;;-142.75;100.00;77897.25;5010410;28;20446;-62
2022/08/07 00:03:02;;;;;;;;;;;;;;;-142.75;100.00;77905.13;5010384;28;19913;-62
2022/08/07 00:05:27;;;;;;;;;;;;;;;-142.75;100.00;77905.13;5011413;28;19913;-62
2022/08/07 00:07:53;;;;;;;;;;;;;;;-142.75;100.00;77899.22;5011142;28;20673;-63
2022/08/07 00:10:18;;;;;;;;;;;;;;;-142.75;100.00;77911.06;4995482;28;19913;-62
2022/08/07 00:12:44;;;;;;;;;;;;;;;-142.75;100.00;77897.25;5015297;28;20392;-62
2022/08/07 00:15:09;;;;;;;;;;;;;;;-142.75;100.00;77905.13;5015449;28;19914;-62
2022/08/07 00:17:34;;;;;;;;;;;;;;;-142.75;100.00;77915.00;5014782;28;19914;-62
2022/08/07 00:20:00;;;;;;;;;;;;;;;-142.75;100.00;77920.91;5015183;28;19914;-63
2022/08/07 00:22:25;;;;;;;;;;;;;;;-142.75;100.00;77916.97;5015132;28;20465;-62
2022/08/07 00:24:50;;;;;;;;;;;;;;;-142.75;100.00;77911.06;5015113;28;20421;-62
2022/08/07 00:27:16;;;;;;;;;;;;;;;-142.75;100.00;77930.75;4997223;28;19920;-63
2022/08/07 00:29:41;;;;;;;;;;;;;;;-142.75;100.00;77920.91;5014706;28;19913;-62
2022/08/07 00:32:06;;;;;;;;;;;;;;;-142.75;100.00;77907.09;4997119;28;19917;-62
2022/08/07 00:34:32;;;;;;;;;;;;;;;-142.75;100.00;77901.19;5013349;28;19987;-63
2022/08/07 00:36:57;;;;;;;;;;;;;;;-142.75;100.00;77889.38;5013359;28;20302;-62
2022/08/07 00:39:22;;;;;;;;;;;;;;;-142.75;100.00;77889.38;5014435;28;19922;-62
2022/08/07 00:41:52;;;;;;;;;;;;;;;-142.75;100.00;77901.19;5013602;28;19924;-62
2022/08/07 00:44:17;;;;;;;;;;;;;;;-142.75;100.00;77911.06;5013843;28;19914;-62
2022/08/07 00:46:42;;;;;;;;;;;;;;;-142.75;100.00;77922.88;5013067;28;20460;-62
2022/08/07 00:49:08;;;;;;;;;;;;;;;-142.75;100.00;77918.94;5013208;28;19914;-62
2022/08/07 00:51:34;;;;;;;;;;;;;;;-142.75;100.00;77915.00;5013000;28;19918;-62
2022/08/07 00:53:59;;;;;;;;;;;;;;;-142.75;100.00;77899.22;5013338;28;19917;-63
2022/08/07 00:56:24;;;;;;;;;;;;;;;-142.75;100.00;77891.34;5013091;28;19936;-62
2022/08/07 00:58:49;;;;;;;;;;;;;;;-142.75;100.00;77877.56;5013310;28;20303;-62
2022/08/07 01:01:15;;;;;;;;;;;;;;;-142.75;100.00;77885.44;5014227;28;19969;-62
2022/08/07 01:03:40;;;;;;;;;;;;;;;-142.75;100.00;77881.50;5013845;28;20006;-62
2022/08/07 01:06:05;;;;;;;;;;;;;;;-142.75;100.00;77889.38;5012974;28;19913;-62
2022/08/07 01:08:31;;;;;;;;;;;;;;;-142.75;100.00;77897.25;5012555;28;19913;-63
2022/08/07 01:10:56;;;;;;;;;;;;;;;-142.75;100.00;77889.38;5014095;28;19928;-62
2022/08/07 01:13:21;;;;;;;;;;;;;;;-142.75;100.00;77915.00;5014044;28;19921;-62
2022/08/07 01:15:48;;;;;;;;;;;;;;;-142.75;100.00;77936.66;5014268;28;19929;-63
2022/08/07 01:18:13;;;;;;;;;;;;;;;-142.75;100.00;77944.53;5029889;22;19952;-64
2022/08/07 01:20:43;;;;;;;;;;;;;;;-142.75;100.00;77952.41;5013493;28;20379;-64
2022/08/07 01:23:09;;;;;;;;;;;;;;;-142.75;100.00;77962.25;5014693;28;19915;-64
2022/08/07 01:25:34;;;;;;;;;;;;;;;-142.75;100.00;77944.53;5014843;28;19921;-64
2022/08/07 01:28:00;;;;;;;;;;;;;;;-142.75;100.00;77950.44;4996951;28;19913;-64
2022/08/07 01:30:25;;;;;;;;;;;;;;;-142.75;100.00;77952.41;5014835;28;19952;-64
2022/08/07 01:32:50;;;;;;;;;;;;;;;-142.75;100.00;77958.31;5014654;28;19918;-64
2022/08/07 01:35:16;;;;;;;;;;;;;;;-142.75;100.00;77968.16;5014768;28;19924;-64
2022/08/07 01:37:41;;;;;;;;;;;;;;;-142.75;100.00;77960.28;5014370;28;19967;-65
2022/08/07 01:40:07;;;;;;;;;;;;;;;-142.75;100.00;77964.22;5014616;28;19920;-65
2022/08/07 01:42:33;;;;;;;;;;;;;;;-142.75;100.00;77958.31;5014588;28;20367;-65
2022/08/07 01:44:58;;;;;;;;;;;;;;;-142.75;100.00;77946.50;5014603;28;20012;-65
2022/08/07 01:47:23;;;;;;;;;;;;;;;-142.75;100.00;77942.56;5014145;28;19914;-65
2022/08/07 01:49:48;;;;;;;;;;;;;;;-142.75;100.00;77946.50;5014586;28;20418;-65
2022/08/07 01:52:14;;;;;;;;;;;;;;;-142.75;100.00;77952.41;5014377;28;19918;-65
2022/08/07 01:54:40;;;;;;;;;;;;;;;-142.75;100.00;77960.28;5014369;28;19943;-65
2022/08/07 01:57:17;;;;;;;;;;;;;;;-142.75;100.00;77974.06;5014029;28;19914;-65
2022/08/07 01:59:45;;;;;;;;;;;;;;;-142.75;100.00;77979.97;5014360;28;19933;-65
2022/08/07 02:02:14;;;;;;;;;;;;;;;-142.75;100.00;77974.06;4996718;28;19948;-65
2022/08/07 02:04:41;;;;;;;;;;;;;;;-142.75;100.00;77970.13;5014224;28;19913;-65
2022/08/07 02:07:08;;;;;;;;;;;;;;;-142.75;100.00;77968.16;4996087;28;19949;-65
2022/08/07 02:09:33;;;;;;;;;;;;;;;-142.75;100.00;77976.03;5014155;28;19975;-65
2022/08/07 02:12:15;;;;;;;;;;;;;;;-142.75;100.00;77976.03;5014020;28;20394;-65
2022/08/07 02:14:41;;;;;;;;;;;;;;;-142.75;100.00;77972.09;5014077;28;19920;-65
2022/08/07 02:17:07;;;;;;;;;;;;;;;-142.75;100.00;77960.28;5013538;28;20004;-65
2022/08/07 02:19:33;;;;;;;;;;;;;;;-142.75;100.00;77954.38;5013903;28;20015;-65
2022/08/07 02:22:00;;;;;;;;;;;;;;;-142.75;100.00;77956.34;5013937;28;19913;-65
2022/08/07 02:24:27;;;;;;;;;;;;;;;-142.75;100.00;77956.34;5013979;28;20008;-66
2022/08/07 02:26:52;;;;;;;;;;;;;;;-142.75;100.00;77938.63;4995949;28;19975;-66
2022/08/07 02:29:18;;;;;;;;;;;;;;;-142.75;100.00;77940.59;5013701;28;19917;-66
2022/08/07 02:31:44;;;;;;;;;;;;;;;-142.75;100.00;77948.47;5013702;28;19918;-65
2022/08/07 02:34:10;;;;;;;;;;;;;;;-142.75;100.00;77948.47;4995593;28;19913;-65
2022/08/07 02:36:36;;;;;;;;;;;;;;;-142.75;100.00;77948.47;5013350;28;19921;-64
2022/08/07 02:39:03;;;;;;;;;;;;;;;-142.75;100.00;77944.53;5026975;28;19970;-66
2022/08/07 02:41:28;;;;;;;;;;;;;;;-142.75;100.00;77932.72;5033345;28;19913;-65
2022/08/07 02:43:56;;;;;;;;;;;;;;;-142.75;100.00;77936.66;5015502;28;19913;-66
2022/08/07 02:46:23;;;;;;;;;;;;;;;-142.75;100.00;77940.59;5015460;28;20290;-65
2022/08/07 02:48:48;;;;;;;;;;;;;;;-142.75;100.00;77932.72;5032831;28;19917;-65
2022/08/07 02:51:15;;;;;;;;;;;;;;;-142.75;100.00;77928.78;5033037;28;20394;-66
2022/08/07 02:53:41;;;;;;;;;;;;;;;-142.75;100.00;77926.81;5033061;28;19967;-65
2022/08/07 02:56:10;;;;;;;;;;;;;;;-142.75;100.00;77932.72;5033062;28;19971;-65
2022/08/07 02:58:36;;;;;;;;;;;;;;;-142.75;100.00;77934.69;5032778;28;19975;-65
2022/08/07 03:01:02;;;;;;;;;;;;;;;-142.75;100.00;77926.81;5033066;28;20383;-65
2022/08/07 03:03:30;;;;;;;;;;;;;;;-142.75;100.00;77940.59;5032812;28;20294;-66
2022/08/07 03:05:55;;;;;;;;;;;;;;;-142.75;100.00;77950.44;5032870;28;19920;-66
2022/08/07 03:08:21;;;;;;;;;;;;;;;-142.75;100.00;77956.34;5032488;28;19913;-66
2022/08/07 03:10:47;;;;;;;;;;;;;;;-142.75;100.00;77956.34;5032717;28;20358;-66
2022/08/07 03:13:14;;;;;;;;;;;;;;;-142.75;100.00;77946.50;5032817;28;19936;-66
2022/08/07 03:15:39;;;;;;;;;;;;;;;-142.75;100.00;77944.53;5014826;28;20371;-65
2022/08/07 03:18:04;;;;;;;;;;;;;;;-142.75;100.00;77956.34;5032077;28;19924;-65
2022/08/07 03:20:30;;;;;;;;;;;;;;;-142.75;100.00;77952.41;5014947;28;20449;-66
2022/08/07 03:22:56;;;;;;;;;;;;;;;-142.75;100.00;77958.31;5014833;28;19920;-65
2022/08/07 03:25:22;;;;;;;;;;;;;;;-142.75;100.00;77952.41;5032582;28;19967;-66
2022/08/07 03:27:48;;;;;;;;;;;;;;;-142.75;100.00;77938.63;5014454;28;20374;-65
2022/08/07 03:30:14;;;;;;;;;;;;;;;-142.75;100.00;77944.53;5032450;28;20018;-65
2022/08/07 03:32:40;;;;;;;;;;;;;;;-142.75;100.00;77930.75;5032294;28;20375;-66
2022/08/07 03:35:08;;;;;;;;;;;;;;;-142.75;100.00;77936.66;5032423;28;19947;-65
2022/08/07 03:37:35;;;;;;;;;;;;;;;-142.75;100.00;77952.41;5032003;28;19936;-65
2022/08/07 03:40:01;;;;;;;;;;;;;;;-142.75;100.00;77958.31;5032336;28;20366;-65
2022/08/07 03:42:27;;;;;;;;;;;;;;;-142.75;100.00;77960.28;5014591;28;19999;-65
2022/08/07 03:44:52;;;;;;;;;;;;;;;-142.75;100.00;77956.34;5013706;28;19924;-65
2022/08/07 03:47:18;;;;;;;;;;;;;;;-142.75;100.00;77956.34;5031876;28;19921;-65
2022/08/07 03:49:43;;;;;;;;;;;;;;;-142.75;100.00;77958.31;5032279;28;19971;-65
2022/08/07 03:52:10;;;;;;;;;;;;;;;-142.75;100.00;77960.28;5032172;28;19917;-65
2022/08/07 03:54:35;;;;;;;;;;;;;;;-142.75;100.00;77970.13;5032248;28;20375;-65
2022/08/07 03:57:01;;;;;;;;;;;;;;;-142.75;100.00;77972.09;5031798;28;19913;-64
2022/08/07 03:59:27;;;;;;;;;;;;;;;-142.75;100.00;77968.16;5032111;28;19917;-65
2022/08/07 04:01:53;;;;;;;;;;;;;;;-142.75;100.00;77976.03;5014357;28;19935;-65
2022/08/07 04:04:18;;;;;;;;;;;;;;;-142.75;100.00;77979.97;5032126;28;19913;-64
2022/08/07 04:06:43;;;;;;;;;;;;;;;-142.75;100.00;77979.97;5031859;28;19913;-65
2022/08/07 04:09:10;;;;;;;;;;;;;;;-142.75;100.00;77970.13;5014276;28;19913;-65
2022/08/07 04:11:36;;;;;;;;;;;;;;;-142.75;100.00;77968.16;5014143;28;20016;-66
2022/08/07 04:14:01;;;;;;;;;;;;;;;-142.75;100.00;77954.38;5031990;28;19948;-65
2022/08/07 04:16:27;;;;;;;;;;;;;;;-142.75;100.00;77956.34;5031809;28;19978;-65
2022/08/07 04:18:52;;;;;;;;;;;;;;;-142.75;100.00;77956.34;5031633;28;19917;-65
2022/08/07 04:21:18;;;;;;;;;;;;;;;-142.75;100.00;77956.34;5032013;28;19914;-65
2022/08/07 04:23:44;;;;;;;;;;;;;;;-142.75;100.00;77952.41;5014241;28;20271;-65
2022/08/07 04:26:09;;;;;;;;;;;;;;;-142.75;100.00;77950.44;5014208;28;19913;-65
2022/08/07 04:28:34;;;;;;;;;;;;;;;-142.75;100.00;77946.50;5031539;28;19913;-65
2022/08/07 04:31:00;;;;;;;;;;;;;;;-142.75;100.00;77944.53;5031716;28;19924;-65
2022/08/07 04:33:26;;;;;;;;;;;;;;;-142.75;100.00;77940.59;5014453;28;19917;-65
2022/08/07 04:35:51;;;;;;;;;;;;;;;-142.75;100.00;77952.41;5031822;28;19974;-65
2022/08/07 04:38:16;;;;;;;;;;;;;;;-142.75;100.00;77948.47;5031445;28;19920;-64
2022/08/07 04:40:42;;;;;;;;;;;;;;;-142.75;100.00;77948.47;5014098;28;19913;-65
2022/08/07 04:43:08;;;;;;;;;;;;;;;-142.75;100.00;77968.16;5031775;28;19913;-65
2022/08/07 04:45:39;;;;;;;;;;;;;;;-142.75;100.00;77958.31;5031673;28;20410;-65
2022/08/07 04:48:11;;;;;;;;;;;;;;;-142.75;100.00;77926.81;5013650;28;19959;-65
2022/08/07 04:50:38;;;;;;;;;;;;;;;-142.75;100.00;77911.06;5031793;28;19917;-65
2022/08/07 04:53:06;;;;;;;;;;;;;;;-142.75;100.00;77920.91;5031723;28;19917;-65
2022/08/07 04:55:35;;;;;;;;;;;;;;;-142.75;100.00;77924.84;5032045;28;19913;-65
2022/08/07 04:58:19;;;;;;;;;;;;;;;-142.75;100.00;77928.78;5033188;28;20008;-65
2022/08/07 05:00:47;;;;;;;;;;;;;;;-142.75;100.00;77928.78;5017438;28;19966;-65
2022/08/07 05:03:12;;;;;;;;;;;;;;;-142.75;100.00;77926.81;5035200;28;19917;-65
2022/08/07 05:05:42;;;;;;;;;;;;;;;-142.75;100.00;77924.84;5035076;28;19920;-62
2022/08/07 05:08:22;;;;;;;;;;;;;;;-142.75;100.00;77918.94;5017004;28;19913;-65
2022/08/07 05:10:51;;;;;;;;;;;;;;;-142.75;100.00;77920.91;5034883;28;19913;-64
2022/08/07 05:13:19;;;;;;;;;;;;;;;-142.75;100.00;77920.91;5035136;28;20347;-65
2022/08/07 05:15:48;;;;;;;;;;;;;;;-142.75;100.00;77897.25;5017171;28;19988;-65
2022/08/07 05:18:17;;;;;;;;;;;;;;;-142.75;100.00;77871.66;5034484;28;19917;-65
2022/08/07 05:20:45;;;;;;;;;;;;;;;-142.75;100.00;77857.88;5034843;28;20374;-64
2022/08/07 05:23:12;;;;;;;;;;;;;;;-142.75;100.00;77826.38;5034795;28;20007;-65
2022/08/07 05:25:40;;;;;;;;;;;;;;;-142.75;100.00;77806.69;5034658;28;20015;-65
2022/08/07 05:28:06;;;;;;;;;;;;;;;-142.75;100.00;77788.97;5034387;28;19917;-65
2022/08/07 05:30:33;;;;;;;;;;;;;;;-142.75;100.00;77755.50;5034695;28;19913;-65
2022/08/07 05:33:00;;;;;;;;;;;;;;;-142.75;100.00;77729.88;5034606;28;20386;-65
2022/08/07 05:35:25;;;;;;;;;;;;;;;-142.75;100.00;77714.13;5034537;28;20469;-65
2022/08/07 05:37:50;;;;;;;;;;;;;;;-142.75;100.00;77704.28;5034176;28;20011;-64
2022/08/07 05:40:16;;;;;;;;;;;;;;;-142.75;100.00;77692.47;5016650;28;20440;-65
2022/08/07 05:42:42;;;;;;;;;;;;;;;-142.75;100.00;77668.84;5034462;28;19999;-65
2022/08/07 05:45:08;;;;;;;;;;;;;;;-142.75;100.00;77645.22;5016673;28;20318;-65
2022/08/07 05:47:33;;;;;;;;;;;;;;;-142.75;100.00;77611.75;5034073;28;19913;-65
2022/08/07 05:50:00;;;;;;;;;;;;;;;-142.75;100.00;77603.88;5034297;28;19941;-65
2022/08/07 05:52:26;;;;;;;;;;;;;;;-142.75;100.00;77590.09;5034224;28;19927;-65
2022/08/07 05:54:51;;;;;;;;;;;;;;;-142.75;100.00;77566.47;5034162;28;20406;-64
2022/08/07 05:57:16;;;;;;;;;;;;;;;-142.75;100.00;77552.69;5033798;28;19917;-64
2022/08/07 05:59:43;;;;;;;;;;;;;;;-142.75;100.00;77546.78;5016392;28;19913;-64
2022/08/07 06:02:12;;;;;;;;;;;;;;;-142.75;100.00;77542.84;5016351;28;20021;-65
2022/08/07 06:04:40;;;;;;;;;;;;;;;-142.75;100.00;77519.22;5016221;28;19913;-65
2022/08/07 06:07:06;;;;;;;;;;;;;;;-142.75;100.00;77505.44;5032976;28;19914;-66
2022/08/07 06:09:32;;;;;;;;;;;;;;;-142.75;100.00;77503.47;5033707;28;20382;-65
2022/08/07 06:11:57;;;;;;;;;;;;;;;-142.75;100.00;77479.84;5033842;28;19917;-65
2022/08/07 06:14:23;;;;;;;;;;;;;;;-142.75;100.00;77436.50;5033854;28;20390;-65
2022/08/07 06:16:50;;;;;;;;;;;;;;;-142.75;100.00;77405.00;5033492;28;19996;-65
2022/08/07 06:19:15;;;;;;;;;;;;;;;-142.75;100.00;77379.41;5015744;28;20301;-64
2022/08/07 06:21:42;;;;;;;;;;;;;;;-142.75;100.00;77365.63;5033717;28;19917;-65
2022/08/07 06:24:07;;;;;;;;;;;;;;;-142.75;100.00;77320.34;5033612;28;19914;-65
2022/08/07 06:26:33;;;;;;;;;;;;;;;-142.75;100.00;77290.81;5015619;28;20004;-63
2022/08/07 06:28:59;;;;;;;;;;;;;;;-142.75;100.00;77277.03;5031860;28;20383;-65
2022/08/07 06:31:24;;;;;;;;;;;;;;;-142.75;100.00;77237.66;5015745;28;19940;-65
2022/08/07 06:33:50;;;;;;;;;;;;;;;-142.75;100.00;77247.50;5033398;28;20399;-65
2022/08/07 06:36:15;;;;;;;;;;;;;;;-142.75;100.00;77231.75;5033453;28;19912;-65
2022/08/07 06:38:41;;;;;;;;;;;;;;;-142.75;100.00;77237.66;5033003;28;20007;-65
2022/08/07 06:41:17;;;;;;;;;;;;;;;-142.75;100.00;77190.41;5033303;28;19917;-65
2022/08/07 06:43:43;;;;;;;;;;;;;;;-142.75;100.00;77168.75;5033602;28;20282;-65
2022/08/07 06:46:08;;;;;;;;;;;;;;;-142.75;100.00;77164.81;5033133;28;19920;-65
2022/08/07 06:48:34;;;;;;;;;;;;;;;-142.75;100.00;77156.94;5032811;28;19913;-65
2022/08/07 06:51:02;;;;;;;;;;;;;;;-142.75;100.00;77164.81;5033077;28;19913;-64
2022/08/07 06:53:28;;;;;;;;;;;;;;;-142.75;100.00;77172.69;5033080;28;19952;-65
2022/08/07 06:55:53;;;;;;;;;;;;;;;-142.75;100.00;77139.22;5033032;28;20390;-65
2022/08/07 06:58:19;;;;;;;;;;;;;;;-142.75;100.00;77133.31;5031121;28;19917;-64
2022/08/07 07:00:45;;;;;;;;;;;;;;;-142.75;100.00;77090.00;5032958;28;20007;-64
2022/08/07 07:03:11;;;;;;;;;;;;;;;-142.75;100.00;77070.31;5032858;28;19983;-65
2022/08/07 07:05:36;;;;;;;;;;;;;;;-142.75;100.00;77056.53;5033062;28;19917;-65
2022/08/07 07:08:02;;;;;;;;;;;;;;;-142.75;100.00;77028.97;5032363;28;19983;-65
2022/08/07 07:10:28;;;;;;;;;;;;;;;-142.75;100.00;77001.41;5032762;28;19920;-65
2022/08/07 07:12:55;;;;;;;;;;;;;;;-142.75;100.00;77007.31;5032692;28;19917;-64
2022/08/07 07:15:23;;;;;;;;;;;;;;;-142.75;100.00;76983.69;5032670;28;19914;-65
2022/08/07 07:17:53;;;;;;;;;;;;;;;-142.75;100.00;76971.88;5055336;22;19917;-66
2022/08/07 07:20:22;;;;;;;;;;;;;;;-142.75;100.00;76956.13;5031230;28;20004;-66
2022/08/07 07:22:48;;;;;;;;;;;;;;;-142.75;100.00;76936.44;5031384;28;19920;-66
2022/08/07 07:25:15;;;;;;;;;;;;;;;-142.75;100.00;76906.91;5032643;28;20286;-65
2022/08/07 07:27:47;;;;;;;;;;;;;;;-142.75;100.00;76930.53;5032209;28;19917;-66
2022/08/07 07:30:12;;;;;;;;;;;;;;;-142.75;100.00;76906.91;5032440;28;19913;-66
2022/08/07 07:32:39;;;;;;;;;;;;;;;-142.75;100.00;76867.53;5032394;28;20337;-66
2022/08/07 07:35:05;;;;;;;;;;;;;;;-142.75;100.00;76855.72;5032441;28;19924;-66
2022/08/07 07:37:32;;;;;;;;;;;;;;;-142.75;100.00;76814.38;5014312;28;19920;-66
2022/08/07 07:40:00;;;;;;;;;;;;;;;-142.75;100.00;76843.91;5032427;28;19920;-67
2022/08/07 07:42:26;;;;;;;;;;;;;;;-142.75;100.00;76782.91;5032336;28;20350;-66
2022/08/07 07:44:52;;;;;;;;;;;;;;;-142.75;100.00;76735.66;5032272;28;19952;-66
2022/08/07 07:47:18;;;;;;;;;;;;;;;-142.75;94.18;76743.53;5032019;28;19935;-66
2022/08/07 07:49:44;;;;;;;;;;;;;;;-142.75;94.77;76729.75;5032144;28;20293;-66
2022/08/07 07:52:11;;;;;;;;;;;;;;;-142.75;93.16;76710.06;5032087;28;19920;-66
2022/08/07 07:54:38;;;;;;;;;;;;;;;-142.75;92.07;76676.59;5032176;28;19923;-67
2022/08/07 07:57:04;;;;;;;;;;;;;;;-142.75;88.28;76725.81;5031891;28;19913;-66
2022/08/07 07:59:29;;;;;;;;;;;;;;;-142.75;91.49;76706.13;5031994;28;20391;-66
2022/08/07 08:01:55;;;;;;;;;;;;;;;-142.75;89.13;76678.56;5032160;28;19913;-66
2022/08/07 08:04:22;;;;;;;;;;;;;;;-142.75;89.23;76737.63;5032095;28;19913;-67
2022/08/07 08:06:48;;;;;;;;;;;;;;;-142.75;89.30;76678.56;5031790;28;19913;-66
2022/08/07 08:09:15;;;;;;;;;;;;;;;-142.75;91.94;76684.47;5032031;28;19983;-66
2022/08/07 08:11:40;;;;;;;;;;;;;;;-142.75;86.61;76684.47;5031967;28;19921;-65
2022/08/07 08:14:05;;;;;;;;;;;;;;;-142.75;82.92;76599.81;5031973;28;20004;-67
2022/08/07 08:16:37;;;;;;;;;;;;;;;-142.75;81.74;76554.53;5031780;28;19913;-65
2022/08/07 08:19:04;;;;;;;;;;;;;;;-142.75;77.67;76560.44;5031850;28;19917;-66
2022/08/07 08:27:04;;;;;;;;;;;;;;;-142.75;77.62;76560.44;5032015;28;19920;-66
2022/08/07 08:29:32;;;;;;;;;;;;;;;-142.75;75.03;76544.69;5031238;28;19948;-66
2022/08/07 08:31:58;;;;;;;;;;;;;;;-142.75;72.61;76552.56;5033538;28;19921;-65
2022/08/07 08:34:24;;;;;;;;;;;;;;;-142.75;71.28;76534.84;5034608;28;19917;-65
2022/08/07 08:36:50;;;;;;;;;;;;;;;-142.75;72.07;76546.66;5034280;28;19964;-65
2022/08/07 08:39:16;;;;;;;;;;;;;;;-142.75;71.95;76515.19;5034756;28;19914;-66
2022/08/07 08:41:55;;;;;;;;;;;;;;;-142.75;70.03;76481.72;5034736;28;20371;-65
2022/08/07 08:44:27;;;;;;;;;;;;;;;-142.75;69.68;76448.25;5034414;28;20074;-66
2022/08/07 08:47:02;;;;;;;;;;;;;;;-142.75;69.20;76460.06;5034182;28;19952;-66
2022/08/07 08:49:32;;;;;;;;;;;;;;;-142.75;70.21;76517.16;5034318;28;19948;-66
2022/08/07 08:52:06;;;;;;;;;;;;;;;-142.75;72.42;76566.34;5034457;28;19917;-66
2022/08/07 08:54:31;;;;;;;;;;;;;;;-142.75;71.72;76448.25;5034603;28;19920;-65
2022/08/07 08:56:59;;;;;;;;;;;;;;;-142.75;68.57;76408.88;5034064;28;19928;-66
2022/08/07 08:59:26;;;;;;;;;;;;;;;-142.75;69.83;76440.38;5034032;28;19928;-66
2022/08/07 09:01:57;;;;;;;;;;;;;;;-142.75;67.35;76412.81;5034165;28;19928;-65
2022/08/07 09:04:41;;;;;;;;;;;;;;;-142.75;70.88;76361.63;5034228;28;20447;-66
2022/08/07 09:07:12;;;;;;;;;;;;;;;-142.75;68.80;76365.56;5033837;28;20268;-66
2022/08/07 09:09:53;;;;;;;;;;;;;;;-142.75;68.20;76369.50;5034077;28;19917;-66
2022/08/07 09:12:37;;;;;;;;;;;;;;;-142.75;65.66;76351.81;5033868;28;19924;-65
2022/08/07 09:15:11;;;;;;;;;;;;;;;-142.75;68.28;76381.31;5033878;28;19919;-66
2022/08/07 09:17:43;;;;;;;;;;;;;;;-142.75;67.59;76340.00;5033345;28;20443;-66
2022/08/07 09:20:16;;;;;;;;;;;;;;;-142.75;64.25;76391.16;5016157;28;19957;-66
2022/08/07 09:22:42;;;;;;;;;;;;;;;-142.75;63.67;76334.09;5033912;28;19913;-66
2022/08/07 09:25:11;;;;;;;;;;;;;;;-142.75;65.06;76371.47;5016211;28;20397;-66
2022/08/07 09:27:39;;;;;;;;;;;;;;;-142.75;63.62;76397.06;5033450;28;19959;-66
2022/08/07 09:30:06;;;;;;;;;;;;;;;-142.75;63.59;76389.19;5015739;28;19913;-65
2022/08/07 09:32:31;;;;;;;;;;;;;;;-142.75;64.57;76304.56;5033902;28;19924;-66
2022/08/07 09:35:11;;;;;;;;;;;;;;;-142.75;63.34;76263.22;5015880;28;19914;-65
2022/08/07 09:37:41;;;;;;;;;;;;;;;-142.75;60.92;76282.91;5033234;28;20283;-66
2022/08/07 09:40:21;;;;;;;;;;;;;;;-142.75;62.61;76275.03;5033539;28;20307;-66
2022/08/07 09:42:55;;;;;;;;;;;;;;;-142.75;59.39;76278.97;5032181;28;19913;-66
2022/08/07 09:45:41;;;;;;;;;;;;;;;-142.75;60.59;76243.53;5033258;28;19913;-66
2022/08/07 09:48:09;;;;;;;;;;;;;;;-142.75;61.63;76243.53;5032451;28;19935;-66
2022/08/07 09:50:37;;;;;;;;;;;;;;;-142.75;60.26;76204.16;5033459;28;19921;-67
2022/08/07 09:53:04;;;;;;;;;;;;;;;-142.75;57.38;76294.72;5033297;28;19918;-67
2022/08/07 09:55:35;;;;;;;;;;;;;;;-142.75;59.83;76202.19;5034218;28;19920;-66
2022/08/07 09:58:21;;;;;;;;;;;;;;;-142.75;57.95;76215.97;5033827;28;19913;-67
2022/08/07 10:00:46;;;;;;;;;;;;;;;-142.75;58.68;76178.59;5034203;28;19920;-66
2022/08/07 10:03:35;;;;;;;;;;;;;;;-142.75;57.73;76156.94;5034080;28;20371;-67
2022/08/07 10:06:19;;;;;;;;;;;;;;;-142.75;53.78;76164.81;5034036;28;19913;-66
2022/08/07 10:09:06;;;;;;;;;;;;;;;-142.75;54.85;76107.72;5033618;28;19928;-66
2022/08/07 10:11:40;;;;;;;;;;;;;;;-142.75;50.63;76072.31;5033809;28;19917;-67
2022/08/07 10:14:17;;;;;;;;;;;;;;;-142.75;50.84;76113.63;5033857;28;19913;-66
2022/08/07 10:16:51;;;;;;;;;;;;;;;-142.75;51.34;76135.28;5033488;28;20028;-66
2022/08/07 10:19:28;;;;;;;;;;;;;;;-142.75;54.32;76113.63;5033591;28;20035;-67
2022/08/07 10:22:12;;;;;;;;;;;;;;;-142.75;57.14;76066.41;5033624;28;20386;-65
2022/08/07 10:24:46;;;;;;;;;;;;;;;-142.75;55.64;76019.16;5015660;28;19917;-66
2022/08/07 10:27:30;;;;;;;;;;;;;;;-142.75;54.78;75973.88;5033202;28;19967;-65
2022/08/07 10:30:10;;;;;;;;;;;;;;;-142.75;51.88;75989.63;5033460;28;20385;-67
2022/08/07 10:32:54;;;;;;;;;;;;;;;-142.75;47.36;75987.66;5033391;28;20378;-66
2022/08/07 10:35:37;;;;;;;;;;;;;;;-142.75;50.34;75952.25;5033384;28;20374;-66
2022/08/07 10:38:21;;;;;;;;;;;;;;;-142.75;49.63;75969.94;5033133;28;19924;-66
2022/08/07 10:40:52;;;;;;;;;;;;;;;-142.75;49.30;75966.00;5032782;28;20003;-66
2022/08/07 10:43:22;;;;;;;;;;;;;;;-142.75;42.36;75999.47;5033311;28;19968;-66
2022/08/07 10:45:50;;;;;;;;;;;;;;;-142.75;41.78;75975.84;5032367;28;19913;-64
2022/08/07 10:48:28;;;;;;;;;;;;;;;-142.75;43.38;75936.50;5031697;28;20027;-65
2022/08/07 10:50:55;;;;;;;;;;;;;;;-142.75;39.99;75928.63;5032191;28;20375;-66
2022/08/07 10:53:26;;;;;;;;;;;;;;;-142.75;46.22;75926.66;5031879;28;19917;-67
2022/08/07 10:55:52;;;;;;;;;;;;;;;-142.75;46.89;75936.50;5032243;28;20012;-65
2022/08/07 10:58:26;;;;;;;;;;;;;;;-142.75;46.18;75926.66;5031701;28;19920;-65
2022/08/07 11:01:12;;;;;;;;;;;;;;;-142.75;43.18;75993.56;5031240;28;20207;-66
2022/08/07 11:03:44;;;;;;;;;;;;;;;-142.75;46.10;76066.41;5031947;28;19917;-67
2022/08/07 11:06:18;;;;;;;;;;;;;;;-142.75;45.73;76021.13;5031951;28;20375;-66
2022/08/07 11:08:50;;;;;;;;;;;;;;;-142.75;47.29;76001.44;5031761;28;19936;-66
2022/08/07 11:11:15;;;;;;;;;;;;;;;-142.75;49.15;75924.69;5031910;28;19918;-66
2022/08/07 11:13:48;;;;;;;;;;;;;;;-142.75;51.21;75930.59;5031711;28;20007;-66
2022/08/07 11:16:16;;;;;;;;;;;;;;;-142.75;47.82;75903.03;5031648;28;19913;-66
2022/08/07 11:18:47;;;;;;;;;;;;;;;-142.75;49.04;75920.75;5031399;28;19917;-66
2022/08/07 11:21:30;;;;;;;;;;;;;;;-142.75;45.95;75908.94;5031822;28;19955;-66
2022/08/07 11:24:10;;;;;;;;;;;;;;;-142.75;46.29;75924.69;5031768;28;19955;-66
2022/08/07 11:26:48;;;;;;;;;;;;;;;-142.75;44.58;75908.94;5031498;28;19913;-64
2022/08/07 11:29:20;;;;;;;;;;;;;;;-142.75;42.26;75906.97;5030383;28;19975;-64
2022/08/07 11:31:50;;;;;;;;;;;;;;;-142.75;38.80;75908.94;5028357;28;19975;-63
2022/08/07 11:34:41;;;;;;;;;;;;;;;-142.75;40.23;75928.63;5031044;28;20396;-64
2022/08/07 11:37:15;;;;;;;;;;;;;;;-142.75;46.16;75875.47;4995489;28;20389;-65
2022/08/07 11:40:02;;;;;;;;;;;;;;;-142.75;39.52;75853.84;5031348;28;19917;-66
2022/08/07 11:42:33;;;;;;;;;;;;;;;-142.75;42.07;75826.28;5031519;28;19967;-66
2022/08/07 11:45:08;;;;;;;;;;;;;;;-142.75;40.03;75877.44;5031082;28;19960;-65
2022/08/07 11:47:52;;;;;;;;;;;;;;;-142.75;46.00;75881.38;5030966;28;19914;-66
2022/08/07 11:50:17;;;;;;;;;;;;;;;-142.75;44.33;75857.78;5031153;28;19914;-66
2022/08/07 11:52:54;;;;;;;;;;;;;;;-142.75;42.81;75877.44;5031112;28;19940;-66
2022/08/07 11:55:35;;;;;;;;;;;;;;;-142.75;40.05;75822.34;5031344;28;19928;-66
2022/08/07 11:58:03;;;;;;;;;;;;;;;-142.75;40.42;75859.72;5031002;28;19920;-66
2022/08/07 12:00:44;;;;;;;;;;;;;;;-142.75;40.31;75822.34;5030853;28;19959;-66
2022/08/07 12:03:28;;;;;;;;;;;;;;;-142.75;45.65;75818.41;5030993;28;19913;-64
2022/08/07 12:06:19;;;;;;;;;;;;;;;-142.75;46.19;75822.34;5032162;28;20043;-63
2022/08/07 12:08:50;;;;;;;;;;;;;;;-142.75;55.56;75861.69;5034962;28;19959;-64
2022/08/07 12:11:20;;;;;;;;;;;;;;;-142.75;48.88;75786.91;5035275;28;19921;-65
2022/08/07 12:13:55;;;;;;;;;;;;;;;-142.75;51.81;75869.56;5050143;28;19920;-65
2022/08/07 12:16:21;;;;;;;;;;;;;;;-142.75;56.12;75893.19;5054942;28;19913;-65
2022/08/07 12:18:54;;;;;;;;;;;;;;;-142.75;57.68;75942.41;5054531;28;19917;-65
2022/08/07 12:21:25;;;;;;;;;;;;;;;-142.75;59.94;75922.72;5054795;28;20279;-65
2022/08/07 12:24:05;;;;;;;;;;;;;;;-142.75;56.83;75844.00;5051319;28;20339;-65
2022/08/07 12:26:39;;;;;;;;;;;;;;;-142.75;51.28;75838.09;5034642;28;20015;-65
2022/08/07 12:29:19;;;;;;;;;;;;;;;-142.75;54.88;75794.78;5034573;28;19976;-64
2022/08/07 12:31:48;;;;;;;;;;;;;;;-142.75;52.79;75802.66;5034641;28;20381;-65
2022/08/07 12:34:14;;;;;;;;;;;;;;;-142.75;51.28;75771.16;5034746;28;19913;-65